WXM80 ListenWXM80 Stop

You find our weather info also at:

UK Metoffice

WeatherCloud

Weather Underground

Northeastern Weather Network

AWEKAS

Citizen Weather Observer Program (CWOP)

HAMweather, WeatherForYou, PWS Weather


Weather Underground History page Text

Daily Summary for November 21, 2017 Units:  English    Metric   Both
« Previous Day
Next Day »
Daily Weekly Monthly Yearly Custom
  High: Low: Average:
Temperature: 58.4 °F 40.2 °F 49.1 °F
Dew Point: 45.2 °F 28.4 °F 38.2 °F
Humidity: 76 % 46 % 67 %
Wind Speed: 9.1 mph 0.0 mph 3.2 mph
Wind Gust: 18.4 mph - -
Wind:- - SW
Pressure: 30.18 in 29.81 in -
Precipitation: 0.00 in    
Historical Graphs
 
 
Tabular Data for November 21, 2017
Time Temperature Dew Point Pressure Wind Wind Speed Wind Gust Humidity Rainfall Rate (Hourly)
00:04 41.7 °F 28.4 °F 30.15 in SSW 4.0 mph 5.8 mph 59 % 0.00 in
00:09 41.6 °F 28.7 °F 30.15 in WSW 1.1 mph 4.6 mph 60 % 0.00 in
00:14 41.5 °F 29.0 °F 30.15 in SW 2.3 mph 3.5 mph 61 % 0.00 in
00:24 41.4 °F 28.9 °F 30.15 in South 2.5 mph 5.8 mph 61 % 0.00 in
00:29 41.3 °F 29.3 °F 30.15 in SW 1.9 mph 5.0 mph 62 % 0.00 in
00:39 41.1 °F 29.5 °F 30.15 in WSW 1.2 mph 3.5 mph 63 % 0.00 in
00:44 41.0 °F 29.4 °F 30.15 in SW 2.3 mph 3.5 mph 63 % 0.00 in
00:49 40.9 °F 29.3 °F 30.15 in SW 2.9 mph 6.9 mph 63 % 0.00 in
00:54 40.8 °F 29.6 °F 30.15 in SW 0.3 mph 1.2 mph 64 % 0.00 in
01:09 40.6 °F 29.7 °F 30.15 in West 3.6 mph 6.0 mph 65 % 0.00 in
01:14 40.6 °F 29.4 °F 30.15 in West 5.2 mph 10.0 mph 64 % 0.00 in
01:30 40.5 °F 29.3 °F 30.15 in SSW 2.5 mph 4.6 mph 64 % 0.00 in
01:35 40.5 °F 29.3 °F 30.15 in SW 5.8 mph 9.2 mph 64 % 0.00 in
01:40 40.6 °F 29.0 °F 30.15 in SSW 4.2 mph 6.9 mph 63 % 0.00 in
01:45 40.6 °F 29.0 °F 30.15 in WSW 3.8 mph 10.4 mph 63 % 0.00 in
01:50 40.7 °F 29.1 °F 30.15 in SW 4.8 mph 8.1 mph 63 % 0.00 in
02:00 40.9 °F 29.3 °F 30.15 in SW 3.5 mph 5.0 mph 63 % 0.00 in
02:10 41.0 °F 29.4 °F 29.91 in SW 1.6 mph 3.5 mph 63 % 0.00 in
02:15 41.0 °F 29.4 °F 30.15 in WSW 0.6 mph 3.5 mph 63 % 0.00 in
02:20 41.0 °F 29.7 °F 30.15 in SW 2.5 mph 4.0 mph 64 % 0.00 in
02:25 41.0 °F 29.7 °F 30.15 in SW 2.0 mph 3.5 mph 64 % 0.00 in
02:30 40.9 °F 29.7 °F 30.16 in SSW 3.0 mph 6.9 mph 64 % 0.00 in
02:33 40.9 °F 29.7 °F 30.16 in WSW 1.5 mph 5.8 mph 64 % 0.00 in
02:43 40.9 °F 30.0 °F 30.15 in WSW 0.4 mph 3.5 mph 65 % 0.00 in
02:48 40.8 °F 29.9 °F 30.15 in SW 2.7 mph 6.0 mph 65 % 0.00 in
02:58 40.7 °F 29.8 °F 30.15 in SW 0.9 mph 3.5 mph 65 % 0.00 in
03:03 40.7 °F 29.8 °F 30.15 in SW 0.7 mph 2.3 mph 65 % 0.00 in
03:13 40.5 °F 30.4 °F 30.15 in SW 3.7 mph 6.9 mph 67 % 0.00 in
03:18 40.4 °F 30.3 °F 30.15 in SW 3.0 mph 4.6 mph 67 % 0.00 in
03:28 40.3 °F 30.6 °F 30.15 in SSW 2.0 mph 4.6 mph 68 % 0.00 in
03:33 40.3 °F 30.6 °F 30.16 in SW 1.2 mph 3.5 mph 68 % 0.00 in
03:38 40.2 °F 30.8 °F 29.91 in SSW 4.1 mph 6.0 mph 69 % 0.00 in
03:43 40.2 °F 30.8 °F 30.15 in SW 2.5 mph 4.0 mph 69 % 0.00 in
03:48 40.2 °F 30.8 °F 30.16 in WSW 1.5 mph 4.6 mph 69 % 0.00 in
03:53 40.2 °F 30.8 °F 30.15 in WSW 3.0 mph 5.0 mph 69 % 0.00 in
04:03 40.4 °F 31.4 °F 30.15 in WSW 3.9 mph 5.0 mph 70 % 0.00 in
04:13 40.7 °F 31.7 °F 30.15 in SW 4.1 mph 9.2 mph 70 % 0.00 in
04:18 40.8 °F 31.8 °F 30.15 in SW 3.3 mph 5.8 mph 70 % 0.00 in
04:19 40.8 °F 31.8 °F 30.15 in WSW 3.2 mph 5.8 mph 70 % 0.00 in
04:28 41.0 °F 32.3 °F 30.15 in SW 3.8 mph 6.0 mph 71 % 0.00 in
04:38 41.3 °F 32.6 °F 30.15 in SW 1.9 mph 5.8 mph 71 % 0.00 in
04:53 41.4 °F 32.7 °F 30.14 in Calm   1.2 mph 71 % 0.00 in
04:58 41.4 °F 32.7 °F 29.90 in WSW 0.8 mph 3.5 mph 71 % 0.00 in
05:03 41.5 °F 32.8 °F 30.15 in SSW 2.6 mph 4.0 mph 71 % 0.00 in
05:08 41.4 °F 32.7 °F 30.15 in West 2.8 mph 3.5 mph 71 % 0.00 in
05:14 41.4 °F 33.0 °F 30.15 in SW 0.6 mph 1.2 mph 72 % 0.00 in
05:19 41.4 °F 33.0 °F 30.15 in SW 1.2 mph 1.2 mph 72 % 0.00 in
05:29 41.3 °F 33.0 °F 30.15 in SSW 2.7 mph 5.8 mph 72 % 0.00 in
05:34 41.2 °F 32.9 °F 29.91 in SW 0.6 mph 3.5 mph 72 % 0.00 in
05:44 41.1 °F 32.8 °F 30.15 in SSW 1.4 mph 3.5 mph 72 % 0.00 in
05:49 41.0 °F 33.0 °F 30.15 in WSW 1.4 mph 3.0 mph 73 % 0.00 in
05:54 40.9 °F 32.9 °F 29.91 in WSW 1.0 mph 3.5 mph 73 % 0.00 in
06:04 40.7 °F 32.7 °F 30.16 in SW 2.2 mph 3.5 mph 73 % 0.00 in
06:09 40.7 °F 32.7 °F 30.16 in SW 2.1 mph 3.5 mph 73 % 0.00 in
06:14 40.6 °F 33.0 °F 30.16 in SW 1.4 mph 4.6 mph 74 % 0.00 in
06:34 40.4 °F 32.8 °F 30.16 in SSW 2.0 mph 3.5 mph 74 % 0.00 in
06:44 40.5 °F 32.9 °F 30.16 in SW 2.4 mph 3.5 mph 74 % 0.00 in
06:49 40.5 °F 32.9 °F 30.16 in SW 1.9 mph 4.0 mph 74 % 0.00 in
06:54 40.6 °F 33.0 °F 30.17 in WSW 2.1 mph 4.6 mph 74 % 0.00 in
06:59 40.6 °F 32.6 °F 30.16 in SW 1.7 mph 3.5 mph 73 % 0.00 in
07:04 40.7 °F 32.7 °F 30.16 in WSW 0.5 mph 3.5 mph 73 % 0.00 in
07:09 40.7 °F 33.1 °F 30.16 in WSW 1.7 mph 3.5 mph 74 % 0.00 in
07:19 40.9 °F 33.2 °F 30.17 in WSW 2.8 mph 5.0 mph 74 % 0.00 in
07:24 40.9 °F 33.2 °F 30.17 in SSW 1.7 mph 4.6 mph 74 % 0.00 in
07:29 41.1 °F 33.4 °F 30.18 in WSW 1.0 mph 2.0 mph 74 % 0.00 in
07:34 41.2 °F 33.9 °F 30.18 in SSW 1.4 mph 4.0 mph 75 % 0.00 in
07:39 41.3 °F 34.0 °F 30.18 in SSW 2.1 mph 5.8 mph 75 % 0.00 in
07:45 41.5 °F 34.2 °F 30.17 in SSW 4.7 mph 4.7 mph 75 % 0.00 in
07:55 42.0 °F 34.6 °F 30.17 in SW 2.3 mph 5.8 mph 75 % 0.00 in
08:00 42.3 °F 34.9 °F 29.93 in WSW 2.6 mph 5.0 mph 75 % 0.00 in
08:05 42.6 °F 35.2 °F 30.17 in SW 1.2 mph 5.8 mph 75 % 0.00 in
08:10 42.9 °F 35.5 °F 30.17 in SW 4.0 mph 9.2 mph 75 % 0.00 in
08:15 43.3 °F 35.9 °F 30.17 in SSW 1.3 mph 6.9 mph 75 % 0.00 in
08:20 43.6 °F 35.9 °F 30.17 in SW 2.0 mph 6.9 mph 74 % 0.00 in
08:25 44.0 °F 36.2 °F 30.17 in SW 4.4 mph 10.4 mph 74 % 0.00 in
08:30 44.2 °F 36.4 °F 30.18 in SW 2.5 mph 4.0 mph 74 % 0.00 in
08:35 44.6 °F 36.8 °F 30.17 in SW 2.8 mph 9.2 mph 74 % 0.00 in
08:40 44.9 °F 37.1 °F 30.17 in WSW 2.6 mph 7.0 mph 74 % 0.00 in
08:50 46.0 °F 37.5 °F 30.17 in SSW 2.9 mph 4.6 mph 72 % 0.00 in
08:55 46.7 °F 38.1 °F 30.17 in West 1.1 mph 3.5 mph 72 % 0.00 in
09:00 47.5 °F 38.6 °F 30.17 in SW 0.5 mph 2.3 mph 71 % 0.00 in
09:05 48.5 °F 38.8 °F 30.17 in SSW 0.8 mph 3.5 mph 69 % 0.00 in
09:10 49.6 °F 39.1 °F 30.17 in SW 3.8 mph 5.0 mph 67 % 0.00 in
09:15 50.5 °F 39.6 °F 30.16 in SSW 1.4 mph 3.5 mph 66 % 0.00 in
09:20 51.4 °F 39.2 °F 30.16 in WSW 1.4 mph 5.8 mph 63 % 0.00 in
09:25 52.1 °F 39.5 °F 30.16 in East 2.7 mph 5.8 mph 62 % 0.00 in
09:40 54.2 °F 40.2 °F 30.16 in WSW 4.4 mph 14.0 mph 59 % 0.00 in
09:45 54.9 °F 38.1 °F 30.15 in SW 6.9 mph 13.8 mph 53 % 0.00 in
09:50 55.4 °F 39.0 °F 30.16 in WSW 5.0 mph 15.0 mph 54 % 0.00 in
09:55 55.9 °F 39.5 °F 30.16 in SW 2.8 mph 6.9 mph 54 % 0.00 in
10:00 56.5 °F 40.0 °F 30.16 in SE 2.0 mph 3.5 mph 54 % 0.00 in
10:10 57.4 °F 37.9 °F 30.16 in SW 7.5 mph 11.5 mph 48 % 0.00 in
10:16 57.6 °F 39.1 °F 30.16 in SSW 2.0 mph 7.0 mph 50 % 0.00 in
10:21 57.8 °F 38.2 °F 30.16 in SW 5.0 mph 9.0 mph 48 % 0.00 in
10:31 57.6 °F 37.0 °F 30.15 in SW 2.0 mph 9.0 mph 46 % 0.00 in
10:36 57.6 °F 38.6 °F 30.15 in SW 3.0 mph 7.0 mph 49 % 0.00 in
10:46 57.2 °F 37.7 °F 30.14 in SSW 8.0 mph 15.0 mph 48 % 0.00 in
10:56 57.0 °F 37.0 °F 30.14 in SSW 7.0 mph 14.0 mph 47 % 0.00 in
11:01 56.9 °F 36.9 °F 30.13 in SSW 6.6 mph 11.5 mph 47 % 0.00 in
11:06 56.8 °F 36.8 °F 30.13 in SSW 3.6 mph 6.9 mph 47 % 0.00 in
11:11 56.8 °F 37.3 °F 29.89 in SSW 7.0 mph 10.0 mph 48 % 0.00 in
11:26 56.5 °F 37.1 °F 30.12 in SSW 5.0 mph 10.0 mph 48 % 0.00 in
11:41 56.6 °F 38.7 °F 30.12 in SSW 3.0 mph 12.0 mph 51 % 0.00 in
11:46 56.6 °F 39.2 °F 30.12 in SSW 6.0 mph 12.0 mph 52 % 0.00 in
11:51 56.4 °F 38.5 °F 30.11 in SSW 3.1 mph 10.4 mph 51 % 0.00 in
11:56 56.5 °F 38.6 °F 30.11 in SSW 5.0 mph 16.0 mph 51 % 0.00 in
12:01 56.6 °F 39.2 °F 30.11 in SW 4.7 mph 9.2 mph 52 % 0.00 in
12:11 56.7 °F 38.8 °F 30.10 in SW 5.4 mph 12.7 mph 51 % 0.00 in
12:16 56.7 °F 39.3 °F 30.10 in SSW 9.1 mph 12.7 mph 52 % 0.00 in
12:31 56.8 °F 39.8 °F 30.09 in South 1.6 mph 4.6 mph 53 % 0.00 in
12:36 56.9 °F 40.4 °F 30.09 in South 8.0 mph 18.4 mph 54 % 0.00 in
12:46 56.8 °F 40.3 °F 30.08 in South 6.2 mph 11.5 mph 54 % 0.00 in
12:47 56.8 °F 40.3 °F 30.08 in SSW 4.0 mph 11.5 mph 54 % 0.00 in
12:57 56.7 °F 39.7 °F 30.08 in SSW 2.4 mph 6.9 mph 53 % 0.00 in
13:02 56.7 °F 40.2 °F 30.07 in SSW 7.7 mph 12.7 mph 54 % 0.00 in
13:07 56.7 °F 39.7 °F 30.07 in SSW 6.3 mph 12.0 mph 53 % 0.00 in
13:12 56.7 °F 39.7 °F 30.07 in SSW 4.4 mph 10.4 mph 53 % 0.00 in
13:17 56.8 °F 40.3 °F 30.07 in WSW 3.1 mph 12.0 mph 54 % 0.00 in
13:27 57.2 °F 40.7 °F 30.07 in SSW 4.4 mph 9.2 mph 54 % 0.00 in
13:32 57.4 °F 40.4 °F 30.07 in SSW 8.2 mph 12.0 mph 53 % 0.00 in
13:42 57.8 °F 40.8 °F 30.07 in WSW 8.2 mph 13.8 mph 53 % 0.00 in
13:47 58.0 °F 41.4 °F 30.07 in WSW 7.5 mph 10.4 mph 54 % 0.00 in
13:52 58.1 °F 42.5 °F 30.07 in SSW 4.8 mph 10.0 mph 56 % 0.00 in
13:57 58.2 °F 42.6 °F 30.07 in SSW 7.8 mph 11.5 mph 56 % 0.00 in
14:07 58.4 °F 42.8 °F 30.06 in WSW 2.6 mph 5.8 mph 56 % 0.00 in
14:17 58.0 °F 41.9 °F 30.06 in South 2.8 mph 5.8 mph 55 % 0.00 in
14:22 57.8 °F 42.7 °F 30.06 in WSW 2.7 mph 4.6 mph 57 % 0.00 in
14:32 57.4 °F 42.3 °F 30.06 in SW 3.9 mph 11.0 mph 57 % 0.00 in
14:42 56.8 °F 41.3 °F 30.06 in SW 6.7 mph 10.4 mph 56 % 0.00 in
14:47 56.7 °F 41.2 °F 30.06 in South 7.2 mph 17.3 mph 56 % 0.00 in
14:57 56.4 °F 41.3 °F 30.06 in South 4.2 mph 8.0 mph 57 % 0.00 in
15:02 56.2 °F 41.2 °F 30.06 in SSW 6.2 mph 10.4 mph 57 % 0.00 in
15:13 55.9 °F 41.3 °F 30.06 in SW 2.7 mph 6.9 mph 58 % 0.00 in
15:18 55.7 °F 41.6 °F 30.06 in South 4.9 mph 11.5 mph 59 % 0.00 in
15:23 55.5 °F 41.8 °F 29.82 in SSW 6.7 mph 11.5 mph 60 % 0.00 in
15:43 54.9 °F 41.7 °F 30.05 in SSW 3.3 mph 7.0 mph 61 % 0.00 in
15:48 54.7 °F 41.9 °F 30.04 in South 2.4 mph 4.6 mph 62 % 0.00 in
15:53 54.5 °F 41.7 °F 30.04 in SSE 1.7 mph 8.1 mph 62 % 0.00 in
15:58 54.4 °F 42.1 °F 30.03 in SSW 3.1 mph 5.8 mph 63 % 0.00 in
16:03 54.2 °F 41.9 °F 30.05 in SSW 1.7 mph 3.5 mph 63 % 0.00 in
16:08 54.0 °F 42.1 °F 30.05 in SSW 3.8 mph 9.2 mph 64 % 0.00 in
16:13 53.8 °F 42.3 °F 30.05 in SW 0.8 mph 3.0 mph 65 % 0.00 in
16:25 53.2 °F 42.5 °F 30.05 in SW 2.8 mph 6.0 mph 67 % 0.00 in
16:30 53.0 °F 42.7 °F 30.06 in SSW 1.4 mph 3.5 mph 68 % 0.00 in
16:40 52.8 °F 42.9 °F 30.06 in SSW 5.6 mph 6.9 mph 69 % 0.00 in
16:45 52.6 °F 43.1 °F 30.06 in WSW 2.3 mph 5.0 mph 70 % 0.00 in
16:50 52.5 °F 43.0 °F 30.06 in SSW 2.9 mph 5.8 mph 70 % 0.00 in
16:55 52.3 °F 43.2 °F 30.06 in SSW 2.3 mph 5.8 mph 71 % 0.00 in
17:05 52.2 °F 43.1 °F 30.06 in SSW 2.5 mph 4.0 mph 71 % 0.00 in
17:15 52.0 °F 42.9 °F 30.06 in SW 2.1 mph 3.5 mph 71 % 0.00 in
17:20 51.9 °F 43.2 °F 30.06 in SW 1.5 mph 3.5 mph 72 % 0.00 in
17:25 51.8 °F 43.1 °F 30.06 in South 1.4 mph 6.9 mph 72 % 0.00 in
17:30 51.7 °F 43.0 °F 30.06 in SSW 1.0 mph 2.3 mph 72 % 0.00 in
17:35 51.6 °F 42.9 °F 30.06 in SSW 1.4 mph 3.5 mph 72 % 0.00 in
17:40 51.5 °F 42.8 °F 30.06 in SW 0.9 mph 4.0 mph 72 % 0.00 in
17:45 51.4 °F 42.7 °F 30.07 in South 3.7 mph 3.7 mph 72 % 0.00 in
17:55 51.3 °F 42.9 °F 30.06 in SSW 2.7 mph 6.9 mph 73 % 0.00 in
18:00 51.3 °F 42.9 °F 30.06 in SW 1.9 mph 6.9 mph 73 % 0.00 in
18:15 51.3 °F 43.6 °F 30.07 in SSW 4.1 mph 4.6 mph 75 % 0.00 in
18:20 51.3 °F 43.6 °F 30.07 in South 2.0 mph 3.5 mph 75 % 0.00 in
18:31 51.4 °F 43.7 °F 30.06 in SSW 5.0 mph 7.0 mph 75 % 0.00 in
18:36 51.5 °F 43.8 °F 30.06 in SSW 3.0 mph 9.0 mph 75 % 0.00 in
18:41 51.5 °F 43.8 °F 30.07 in SSW 2.0 mph 6.0 mph 75 % 0.00 in
18:46 51.6 °F 43.9 °F 30.07 in SSW 3.1 mph 8.1 mph 75 % 0.00 in
18:51 51.7 °F 44.0 °F 30.07 in SSW 2.0 mph 7.0 mph 75 % 0.00 in
18:56 51.7 °F 44.4 °F 30.08 in SSW 3.0 mph 9.0 mph 76 % 0.00 in
18:58 51.7 °F 44.4 °F 30.08 in SW 3.5 mph 4.6 mph 76 % 0.00 in
19:03 51.8 °F 44.5 °F 30.08 in SSW 3.9 mph 5.8 mph 76 % 0.00 in
19:13 51.9 °F 44.6 °F 30.07 in SSW 3.7 mph 5.8 mph 76 % 0.00 in
19:18 51.9 °F 44.6 °F 30.07 in SSW 3.4 mph 8.0 mph 76 % 0.00 in
19:23 52.0 °F 44.7 °F 30.07 in SW 4.3 mph 6.9 mph 76 % 0.00 in
19:28 52.1 °F 44.8 °F 30.07 in SSW 3.8 mph 8.0 mph 76 % 0.00 in
19:48 52.2 °F 43.8 °F 30.08 in WSW 2.4 mph 6.9 mph 73 % 0.00 in
19:58 52.2 °F 43.8 °F 30.08 in SSW 2.9 mph 4.6 mph 73 % 0.00 in
20:03 52.2 °F 43.8 °F 30.08 in South 2.4 mph 3.5 mph 73 % 0.00 in
20:08 52.2 °F 43.4 °F 30.07 in SW 4.7 mph 6.0 mph 72 % 0.00 in
20:13 52.2 °F 43.4 °F 30.07 in SSW 4.0 mph 8.1 mph 72 % 0.00 in
20:18 52.2 °F 43.4 °F 29.83 in SW 3.4 mph 7.0 mph 72 % 0.00 in
20:38 52.0 °F 43.6 °F 30.07 in SW 1.8 mph 4.6 mph 73 % 0.00 in
20:43 51.9 °F 43.5 °F 30.07 in South 3.5 mph 7.0 mph 73 % 0.00 in
20:48 51.8 °F 43.8 °F 30.07 in WSW 2.0 mph 8.1 mph 74 % 0.00 in
20:53 51.7 °F 43.7 °F 30.07 in SW 2.3 mph 8.1 mph 74 % 0.00 in
20:59 51.7 °F 44.0 °F 30.07 in SSW 3.6 mph 6.9 mph 75 % 0.00 in
21:04 51.6 °F 43.9 °F 30.07 in SSW 3.5 mph 9.2 mph 75 % 0.00 in
21:08 51.6 °F 44.3 °F 30.07 in SSW 3.9 mph 6.9 mph 76 % 0.00 in
21:13 51.6 °F 44.3 °F 30.07 in SSW 2.6 mph 6.9 mph 76 % 0.00 in
21:18 51.6 °F 44.3 °F 30.07 in WSW 5.2 mph 9.2 mph 76 % 0.00 in
21:24 51.6 °F 44.3 °F 30.07 in South 2.9 mph 5.8 mph 76 % 0.00 in
21:34 51.6 °F 44.3 °F 30.07 in SSW 3.0 mph 5.8 mph 76 % 0.00 in
21:39 51.7 °F 44.4 °F 30.07 in SW 2.7 mph 5.8 mph 76 % 0.00 in
21:44 51.6 °F 44.3 °F 30.07 in SSW 3.3 mph 5.0 mph 76 % 0.00 in
21:49 51.6 °F 44.3 °F 30.07 in WSW 1.1 mph 4.6 mph 76 % 0.00 in
21:50 51.6 °F 44.3 °F 30.07 in SSW 1.9 mph 4.6 mph 76 % 0.00 in
21:55 51.6 °F 44.3 °F 30.07 in SW 5.0 mph 8.1 mph 76 % 0.00 in
22:00 51.6 °F 44.3 °F 30.07 in SW 2.6 mph 8.1 mph 76 % 0.00 in
22:10 51.7 °F 44.4 °F 30.06 in SW 2.7 mph 4.6 mph 76 % 0.00 in
22:15 51.7 °F 44.4 °F 30.06 in SW 4.2 mph 5.8 mph 76 % 0.00 in
22:20 51.7 °F 44.4 °F 30.06 in South 2.5 mph 6.9 mph 76 % 0.00 in
22:30 52.0 °F 44.7 °F 30.06 in SSW 4.6 mph 6.9 mph 76 % 0.00 in
22:40 52.2 °F 44.9 °F 30.06 in SSW 6.8 mph 11.5 mph 76 % 0.00 in
22:50 52.4 °F 44.7 °F 30.06 in SSW 3.1 mph 6.9 mph 75 % 0.00 in
22:55 52.5 °F 44.8 °F 30.06 in WSW 3.5 mph 6.9 mph 75 % 0.00 in
23:01 52.6 °F 44.9 °F 30.05 in SSW 5.5 mph 10.4 mph 75 % 0.00 in
23:06 52.7 °F 45.0 °F 29.82 in SSW 2.4 mph 5.0 mph 75 % 0.00 in
23:16 52.7 °F 45.0 °F 30.05 in SSW 3.0 mph 7.0 mph 75 % 0.00 in
23:21 52.7 °F 45.0 °F 30.05 in SSW 2.0 mph 4.6 mph 75 % 0.00 in
23:26 52.8 °F 45.0 °F 30.05 in SSW 2.0 mph 8.0 mph 75 % 0.00 in
23:31 52.7 °F 45.0 °F 29.81 in SW 1.9 mph 6.9 mph 75 % 0.00 in
23:36 52.8 °F 45.1 °F 30.05 in South 4.7 mph 8.0 mph 75 % 0.00 in
23:40 52.8 °F 45.1 °F 30.05 in SSW 2.5 mph 8.1 mph 75 % 0.00 in
23:50 52.9 °F 45.2 °F 30.05 in SW 3.5 mph 3.5 mph 75 % 0.00 in
Crab Meadow Weather
Compliments of Weather Underground - 2.5 mb

Script developed by  Jim McMurry - jmcmurry@mwt.net Adapted for the template by  Wim van der Kuil - Leuven-Template.eu

Weather Terms: Rain/Showers - Rain is a nearly steady and uniform fall of precipitation over an area. Showers are intermittent and/or scattered convective rainfall of varying intensity.